»·PEaware :: N3879T KAVX-KSAN

N3879T :: KAVX-KSAN

FLIGHT INFORMATION

Flight Status: Arrived
Operator: Privately registered:
United States
More flights under this callsign
Pilot: Steven S. (24921)
Aircraft: PIPER PA-28R-201 ARROW
(P28R)
More flights by this aircraft type
Origin: KAVX Catalina
United States
Destination: KSAN San Diego Intl-Lindbergh
United States
More flights between these airports :: More routes between these airports
Route: SXC V208 OCN V23 MZB
File this flight plan on PilotEdge
Remarks: TEC route CSTP56 I-8 Rating
Altitude:
(Current/Filed)
5,000ft
Speed:
(Current/Filed)
130kts
Departed: 01-Jan-20 02:01 PM
Arrived: 01-Jan-20 03:04 PM
Distance/Time
Traveled:
74nm/1:02
Distance/Time
To Go:
Arrived

Flight Plot

Page will automatically refresh every two minutes.


Map Options




Map Legend


Flown Route
Filed Route
Departure Airport
Arrival Airport
Navaid (VOR, NDB)
Fix

Horizontal Profiles

Position Reports

Time Latitude Longitude Heading Altitude Ground
Speed
01-Jan-20 13:47 33.403518 -118.415619 138 1548ft 0kts
01-Jan-20 13:48 33.403518 -118.415619 138 1548ft 0kts
01-Jan-20 13:49 33.403518 -118.415619 138 1548ft 0kts
01-Jan-20 13:50 33.403518 -118.415619 138 1548ft 0kts
01-Jan-20 13:51 33.403518 -118.415619 138 1548ft 0kts
01-Jan-20 13:52 33.403518 -118.415619 138 1548ft 0kts
01-Jan-20 13:53 33.403518 -118.415619 138 1548ft 0kts
01-Jan-20 13:53 33.403518 -118.415619 138 1548ft 0kts
01-Jan-20 13:55 33.403518 -118.415619 138 1548ft 0kts
01-Jan-20 13:55 33.403517 -118.415617 137 1548ft 0kts
01-Jan-20 13:56 33.405071 -118.414897 44 1541ft 13kts
01-Jan-20 13:58 33.406985 -118.411724 55 1502ft 0kts
01-Jan-20 13:58 33.406985 -118.411724 55 1502ft 0kts
01-Jan-20 13:59 33.407098 -118.411539 51 1500ft 6kts
01-Jan-20 14:00 33.402304 -118.420443 238 1676ft 81kts
01-Jan-20 14:01 33.388222 -118.439376 178 2717ft 79kts
01-Jan-20 14:02 33.374615 -118.418704 99 3861ft 83kts
01-Jan-20 14:03 33.370041 -118.381360 99 4093ft 126kts
01-Jan-20 14:04 33.364404 -118.337629 99 3926ft 129kts
01-Jan-20 14:05 33.358834 -118.294778 99 3986ft 130kts
01-Jan-20 14:06 33.353428 -118.251818 98 4002ft 130kts
01-Jan-20 14:07 33.347820 -118.208771 98 3914ft 130kts
01-Jan-20 14:08 33.342239 -118.166339 98 4005ft 125kts
01-Jan-20 14:09 33.336966 -118.126333 98 4518ft 115kts
01-Jan-20 14:10 33.331836 -118.087511 98 4953ft 126kts
01-Jan-20 14:11 33.326084 -118.044484 98 4959ft 132kts
01-Jan-20 14:12 33.320269 -118.000977 98 4908ft 131kts
01-Jan-20 14:13 33.314469 -117.957631 98 4918ft 132kts
01-Jan-20 14:14 33.308626 -117.914076 98 4925ft 132kts
01-Jan-20 14:15 33.302791 -117.870693 98 4931ft 132kts
01-Jan-20 14:16 33.296936 -117.827273 98 4936ft 132kts
01-Jan-20 14:17 33.291045 -117.783716 98 4941ft 132kts
01-Jan-20 14:18 33.285038 -117.740462 99 4930ft 130kts
01-Jan-20 14:19 33.278662 -117.697957 99 4937ft 130kts
01-Jan-20 14:20 33.272228 -117.655317 99 4941ft 130kts
01-Jan-20 14:21 33.265765 -117.612614 99 4943ft 130kts
01-Jan-20 14:22 33.259553 -117.569908 98 4944ft 130kts
01-Jan-20 14:23 33.254265 -117.526862 97 4945ft 130kts
01-Jan-20 14:24 33.248930 -117.483243 97 4767ft 131kts
01-Jan-20 14:25 33.243692 -117.440445 97 4791ft 129kts
01-Jan-20 14:26 33.221808 -117.411899 155 4956ft 126kts
01-Jan-20 14:27 33.188530 -117.396042 158 4968ft 131kts
01-Jan-20 14:28 33.153954 -117.381113 160 4878ft 132kts
01-Jan-20 14:29 33.119607 -117.366654 160 4905ft 128kts
01-Jan-20 14:30 33.085962 -117.352514 160 5000ft 127kts
01-Jan-20 14:31 33.051963 -117.338246 160 5009ft 130kts
01-Jan-20 14:32 33.017723 -117.323883 160 5005ft 130kts
01-Jan-20 14:33 32.983591 -117.309575 160 5019ft 129kts
01-Jan-20 14:34 32.949047 -117.295106 160 4943ft 132kts
01-Jan-20 14:35 32.914530 -117.280663 160 4877ft 131kts
01-Jan-20 14:36 32.879905 -117.266183 160 4832ft 131kts
01-Jan-20 14:37 32.846288 -117.252130 160 4956ft 128kts
01-Jan-20 14:38 32.812245 -117.237921 160 4993ft 129kts
01-Jan-20 14:39 32.783613 -117.216103 103 5009ft 128kts
01-Jan-20 14:40 32.775881 -117.174148 102 5007ft 130kts
01-Jan-20 14:41 32.768411 -117.132791 102 4958ft 122kts
01-Jan-20 14:42 32.761076 -117.092167 102 4888ft 124kts
01-Jan-20 14:43 32.754176 -117.053947 101 4955ft 116kts
01-Jan-20 14:44 32.747383 -117.016286 101 4938ft 116kts
01-Jan-20 14:45 32.740584 -116.978615 101 4920ft 116kts
01-Jan-20 14:46 32.733768 -116.940869 101 4917ft 116kts
01-Jan-20 14:47 32.726969 -116.903244 101 4930ft 116kts
01-Jan-20 14:48 32.720149 -116.865518 101 4944ft 116kts
01-Jan-20 14:49 32.713355 -116.827962 101 4957ft 116kts
01-Jan-20 14:50 32.706496 -116.790139 102 4934ft 118kts
01-Jan-20 14:51 32.683477 -116.794668 242 4923ft 115kts
01-Jan-20 14:52 32.668798 -116.829007 242 4888ft 117kts
01-Jan-20 14:53 32.657815 -116.864700 251 4844ft 110kts
01-Jan-20 14:54 32.662078 -116.899003 288 4932ft 109kts
01-Jan-20 14:55 32.671065 -116.933120 286 4843ft 110kts
01-Jan-20 14:56 32.679869 -116.968532 286 4365ft 111kts
01-Jan-20 14:57 32.688228 -117.002958 285 3868ft 107kts
01-Jan-20 14:58 32.696339 -117.036590 285 3230ft 102kts
01-Jan-20 14:59 32.704228 -117.069037 286 2514ft 100kts
01-Jan-20 15:00 32.712025 -117.100884 285 1827ft 99kts
01-Jan-20 15:01 32.719716 -117.132522 285 1010ft 101kts
01-Jan-20 15:02 32.726417 -117.160195 286 463ft 83kts
01-Jan-20 15:03 32.732332 -117.184747 287 14ft 40kts
01-Jan-20 15:04 32.733975 -117.188041 4 16ft 0kts
01-Jan-20 15:05 32.733975 -117.188041 4 16ft 0kts

Navigation Log

Ident Type
Flight plan parsing failed, navigation log unavailable